Time;durP1;ratioP1;P1;durP2;ratioP2;P2;SDS_P1;SDS_P2;PMS_P1;PMS_P2;Temp;Humidity;BMP_temperature;BMP_pressure;BME280_temperature;BME280_humidity;BME280_pressure;Samples;Min_cycle;Max_cycle;Signal;HPM_P1;HPM_P2
2022/08/09 00:00:16;;;;;;;8.23;5.03;;;17.10;99.90;;;;;;5039277;28;20153;-62
2022/08/09 00:02:42;;;;;;;7.47;5.13;;;17.10;99.90;;;;;;5038664;28;20125;-62
2022/08/09 00:05:08;;;;;;;7.70;5.50;;;17.10;99.90;;;;;;5037266;28;20033;-62
2022/08/09 00:07:33;;;;;;;9.43;5.40;;;17.10;99.90;;;;;;5039013;28;20091;-62
2022/08/09 00:09:59;;;;;;;9.73;5.75;;;17.00;99.90;;;;;;5046429;28;20116;-62
2022/08/09 00:12:24;;;;;;;7.50;5.60;;;17.00;99.90;;;;;;5034168;28;20363;-62
2022/08/09 00:14:51;;;;;;;7.80;5.35;;;17.00;99.90;;;;;;5035136;28;20048;-62
2022/08/09 00:17:16;;;;;;;7.03;5.38;;;17.00;99.90;;;;;;5038020;28;20041;-62
2022/08/09 00:19:42;;;;;;;8.25;5.35;;;16.90;99.90;;;;;;5044071;28;20063;-62
2022/08/09 00:22:07;;;;;;;9.25;5.32;;;16.80;99.90;;;;;;5037456;28;20052;-62
2022/08/09 00:24:33;;;;;;;8.02;4.90;;;16.90;99.90;;;;;;5035610;28;20029;-62
2022/08/09 00:27:00;;;;;;;7.95;5.28;;;16.90;99.90;;;;;;5036625;28;20045;-62
2022/08/09 00:29:26;;;;;;;7.00;5.40;;;16.80;99.90;;;;;;5044596;28;20120;-62
2022/08/09 00:31:52;;;;;;;10.50;6.20;;;16.80;99.90;;;;;;5038925;28;20048;-62
2022/08/09 00:34:18;;;;;;;8.23;6.90;;;16.80;99.90;;;;;;5036045;28;20037;-62
2022/08/09 00:36:44;;;;;;;7.70;6.18;;;16.70;99.90;;;;;;5036425;28;20135;-62
2022/08/09 00:39:10;;;;;;;9.73;5.82;;;16.80;99.90;;;;;;5035759;28;20124;-62
2022/08/09 00:41:36;;;;;;;8.23;5.72;;;16.70;99.90;;;;;;5030766;28;20477;-62
2022/08/09 00:44:02;;;;;;;8.65;6.18;;;16.70;99.90;;;;;;5041692;28;20041;-62
2022/08/09 00:46:28;;;;;;;9.25;6.10;;;16.70;99.90;;;;;;5036631;28;20075;-62
2022/08/09 00:48:53;;;;;;;9.82;6.65;;;16.60;99.90;;;;;;5037967;28;20100;-62
2022/08/09 00:51:19;;;;;;;10.68;6.82;;;16.60;99.90;;;;;;5040020;28;20044;-63
2022/08/09 00:53:45;;;;;;;9.38;6.60;;;16.50;99.90;;;;;;5036511;28;20041;-64
2022/08/09 00:56:12;;;;;;;10.82;6.75;;;16.50;99.90;;;;;;5038985;28;20053;-64
2022/08/09 00:58:38;;;;;;;11.15;6.85;;;16.50;99.90;;;;;;5042841;28;20124;-63
2022/08/09 01:01:34;;;;;;;8.40;7.00;;;16.40;99.90;;;;;;5035882;28;20124;-61
2022/08/09 01:04:17;;;;;;;8.25;7.25;;;16.40;99.90;;;;;;5034253;28;20523;-61
2022/08/09 01:07:21;;;;;;;10.38;6.60;;;16.40;99.90;;;;;;5034931;28;20060;-62
2022/08/09 01:10:04;;;;;;;9.18;6.63;;;16.40;99.90;;;;;;5037035;28;20052;-62
2022/08/09 01:12:41;;;;;;;8.82;6.50;;;16.30;99.90;;;;;;5040210;28;20110;-61
2022/08/09 01:15:11;;;;;;;8.95;6.60;;;16.30;99.90;;;;;;5050701;28;20055;-61
2022/08/09 01:17:40;;;;;;;9.45;7.20;;;16.30;99.90;;;;;;5044842;28;20097;-62
2022/08/09 01:20:43;;;;;;;9.02;6.40;;;16.20;99.90;;;;;;5042931;28;20515;-62
2022/08/09 01:23:37;;;;;;;8.60;6.22;;;16.20;99.90;;;;;;5046400;28;20063;-61
2022/08/09 01:26:12;;;;;;;9.52;6.20;;;16.20;99.90;;;;;;5043585;28;20076;-62
2022/08/09 01:28:42;;;;;;;;;;;16.10;99.90;;;;;;5044989;28;20454;-61
2022/08/09 01:31:12;;;;;;;8.75;5.78;;;16.10;99.90;;;;;;5042153;28;19936;-62
2022/08/09 01:33:40;;;;;;;7.05;5.55;;;16.10;99.90;;;;;;5040162;28;20041;-62
2022/08/09 01:36:11;;;;;;;8.80;6.05;;;16.00;99.90;;;;;;5040382;28;20424;-61
2022/08/09 01:38:41;;;;;;;9.98;6.57;;;16.00;99.90;;;;;;5037002;28;20041;-62
2022/08/09 01:41:15;;;;;;;7.32;5.68;;;16.00;99.90;;;;;;5041931;28;20041;-62
2022/08/09 01:43:45;;;;;;;7.93;5.53;;;16.00;99.90;;;;;;5048270;28;20072;-61
2022/08/09 01:46:13;;;;;;;9.07;5.80;;;15.90;99.90;;;;;;5042036;28;20119;-62
2022/08/09 01:48:40;;;;;;;7.00;5.47;;;16.00;99.90;;;;;;5044426;28;20056;-62
2022/08/09 01:51:07;;;;;;;7.95;5.82;;;15.90;99.90;;;;;;5042785;28;20602;-62
2022/08/09 01:53:34;;;;;;;7.47;5.72;;;15.90;99.90;;;;;;5032775;28;20111;-62
2022/08/09 01:56:02;;;;;;;7.55;5.57;;;15.90;99.90;;;;;;5043065;28;20043;-61
2022/08/09 01:58:29;;;;;;;7.88;5.15;;;15.90;99.90;;;;;;5043242;28;20753;-62
2022/08/09 02:00:58;;;;;;;6.53;5.20;;;15.80;99.90;;;;;;5042876;28;20435;-62
2022/08/09 02:03:25;;;;;;;7.07;5.05;;;15.80;99.90;;;;;;5046537;28;20072;-62
2022/08/09 02:05:54;;;;;;;7.85;5.20;;;15.80;99.90;;;;;;5040360;28;20136;-62
2022/08/09 02:08:22;;;;;;;7.38;5.07;;;15.70;99.90;;;;;;5039714;28;20056;-62
2022/08/09 02:10:50;;;;;;;6.95;4.80;;;15.70;99.90;;;;;;5038427;28;20045;-62
2022/08/09 02:13:19;;;;;;;6.07;4.90;;;15.70;99.90;;;;;;5046909;28;20037;-61
2022/08/09 02:15:50;;;;;;;7.30;5.38;;;15.60;99.90;;;;;;5039168;28;20037;-62
2022/08/09 02:18:20;;;;;;;6.75;5.25;;;15.60;99.90;;;;;;5043271;28;20045;-62
2022/08/09 02:20:50;;;;;;;7.90;5.57;;;15.60;99.90;;;;;;5045462;28;20064;-62
2022/08/09 02:23:39;;;;;;;8.23;5.40;;;15.60;99.90;;;;;;5036728;28;20098;-62
2022/08/09 02:26:06;;;;;;;7.03;5.47;;;15.60;99.90;;;;;;5038856;28;20052;-62
2022/08/09 02:28:39;;;;;;;8.57;5.15;;;15.50;99.90;;;;;;5041215;28;20155;-62
2022/08/09 02:31:14;;;;;;;9.20;5.55;;;15.50;99.90;;;;;;5044117;28;20043;-62
2022/08/09 02:33:42;;;;;;;;;;;15.50;99.90;;;;;;5039781;28;20508;-62
2022/08/09 02:36:20;;;;;;;6.55;4.70;;;15.50;99.90;;;;;;5041543;28;20290;-62
2022/08/09 02:38:54;;;;;;;6.47;4.47;;;15.50;99.90;;;;;;5036635;28;20041;-62
2022/08/09 02:41:44;;;;;;;6.22;4.55;;;15.40;99.90;;;;;;5042989;28;20049;-63
2022/08/09 02:44:22;;;;;;;5.82;4.45;;;15.40;99.90;;;;;;5043349;28;20064;-63
2022/08/09 02:46:50;;;;;;;7.47;5.45;;;15.40;99.90;;;;;;5043296;28;20073;-63
2022/08/09 02:49:18;;;;;;;7.15;5.13;;;15.40;99.90;;;;;;5043645;28;20047;-62
2022/08/09 02:51:48;;;;;;;7.05;5.20;;;15.40;99.90;;;;;;5044893;28;20037;-61
2022/08/09 02:54:15;;;;;;;7.05;4.75;;;15.30;99.90;;;;;;5037251;28;20053;-64
2022/08/09 02:56:47;;;;;;;7.05;4.45;;;15.30;99.90;;;;;;5046771;28;20067;-64
2022/08/09 02:59:14;;;;;;;6.80;4.88;;;15.30;99.90;;;;;;5045190;28;20463;-64
2022/08/09 03:01:41;;;;;;;6.38;4.80;;;15.30;99.90;;;;;;5043023;28;20057;-63
2022/08/09 03:04:08;;;;;;;6.35;4.70;;;15.30;99.90;;;;;;5035544;28;20045;-64
2022/08/09 03:06:36;;;;;;;6.82;4.57;;;15.30;99.90;;;;;;5038906;28;20048;-64
2022/08/09 03:09:02;;;;;;;7.80;4.75;;;15.30;99.90;;;;;;5045360;28;20147;-64
2022/08/09 03:11:29;;;;;;;6.43;4.82;;;15.20;99.90;;;;;;5040366;28;20124;-64
2022/08/09 03:13:56;;;;;;;5.88;4.40;;;15.20;99.90;;;;;;5035254;28;20187;-61
2022/08/09 03:16:23;;;;;;;6.88;4.20;;;15.20;99.90;;;;;;5040607;28;20037;-64
2022/08/09 03:18:50;;;;;;;6.28;4.18;;;15.20;99.90;;;;;;5039267;28;20045;-64
2022/08/09 03:21:18;;;;;;;6.63;4.47;;;15.20;99.90;;;;;;5043108;28;20047;-64
2022/08/09 03:23:47;;;;;;;5.20;4.00;;;15.10;99.90;;;;;;5036968;28;20117;-64
2022/08/09 03:26:18;;;;;;;6.28;4.40;;;15.10;99.90;;;;;;5038517;28;20057;-64
2022/08/09 03:28:46;;;;;;;5.60;3.95;;;15.00;99.90;;;;;;5034418;28;20056;-64
2022/08/09 03:31:12;;;;;;;6.00;4.22;;;15.10;99.90;;;;;;5039465;28;20060;-64
2022/08/09 03:33:39;;;;;;;6.30;3.83;;;15.00;99.90;;;;;;5037209;28;20037;-64
2022/08/09 03:36:06;;;;;;;6.00;3.42;;;15.00;99.90;;;;;;5035230;28;20113;-64
2022/08/09 03:38:33;;;;;;;4.70;3.15;;;15.00;99.90;;;;;;5041456;28;20494;-64
2022/08/09 03:40:58;;;;;;;5.88;3.55;;;14.90;99.90;;;;;;5038775;28;20097;-64
2022/08/09 03:43:26;;;;;;;5.15;3.53;;;14.90;99.90;;;;;;5044400;28;20405;-64
2022/08/09 03:45:52;;;;;;;5.85;3.90;;;14.90;99.90;;;;;;5042038;28;20095;-64
2022/08/09 03:48:20;;;;;;;6.95;4.82;;;14.90;99.90;;;;;;5044042;28;20743;-64
2022/08/09 03:50:47;;;;;;;6.70;4.65;;;14.80;99.90;;;;;;5038805;28;21818;-64
2022/08/09 03:53:15;;;;;;;6.88;5.03;;;14.80;99.90;;;;;;5040323;28;20090;-64
2022/08/09 03:55:41;;;;;;;7.10;4.82;;;14.80;99.90;;;;;;5033946;28;20056;-64
2022/08/09 03:58:07;;;;;;;7.95;4.97;;;14.80;99.90;;;;;;5045204;28;20049;-64
2022/08/09 04:00:33;;;;;;;6.80;4.80;;;14.70;99.90;;;;;;5040929;28;20042;-64
2022/08/09 04:03:00;;;;;;;8.95;6.00;;;14.70;99.90;;;;;;5042202;28;20126;-64
2022/08/09 04:05:26;;;;;;;6.95;4.80;;;14.70;99.90;;;;;;5040626;28;20430;-63
2022/08/09 04:07:52;;;;;;;8.07;5.47;;;14.60;99.90;;;;;;5042696;28;20056;-64
2022/08/09 04:10:21;;;;;;;6.68;4.72;;;14.70;99.90;;;;;;5035247;28;20041;-64
2022/08/09 04:12:48;;;;;;;7.93;5.60;;;14.70;99.90;;;;;;5038434;28;20094;-64
2022/08/09 04:15:15;;;;;;;7.68;5.60;;;14.70;99.90;;;;;;5039636;28;20424;-63
2022/08/09 04:17:42;;;;;;;8.35;5.50;;;14.70;99.90;;;;;;5037397;28;20041;-64
2022/08/09 04:20:09;;;;;;;10.13;6.03;;;14.60;99.90;;;;;;5034425;28;20487;-64
2022/08/09 04:22:35;;;;;;;8.15;5.95;;;14.60;99.90;;;;;;5040510;28;20044;-63
2022/08/09 04:25:01;;;;;;;8.13;6.50;;;14.60;99.90;;;;;;5043926;28;20041;-63
2022/08/09 04:27:27;;;;;;;8.00;6.38;;;14.60;99.90;;;;;;5042034;28;20408;-64
2022/08/09 04:29:52;;;;;;;10.50;7.00;;;14.60;99.90;;;;;;5039972;28;20045;-63
2022/08/09 04:32:18;;;;;;;9.75;6.72;;;14.60;99.90;;;;;;5043649;28;20045;-64
2022/08/09 04:34:44;;;;;;;9.13;6.82;;;14.70;99.90;;;;;;5036762;28;20091;-64
2022/08/09 04:37:10;;;;;;;10.50;7.15;;;14.70;99.90;;;;;;5036974;28;20044;-64
2022/08/09 04:39:35;;;;;;;10.75;7.85;;;14.70;99.90;;;;;;5038179;28;20128;-64
2022/08/09 04:42:01;;;;;;;9.57;6.90;;;14.70;99.90;;;;;;5035945;28;20047;-63
2022/08/09 04:44:27;;;;;;;10.63;7.43;;;14.70;99.90;;;;;;5038721;28;20041;-63
2022/08/09 04:46:53;;;;;;;10.40;7.60;;;14.70;99.90;;;;;;5037538;28;20052;-64
2022/08/09 04:49:19;;;;;;;8.52;6.57;;;14.70;99.90;;;;;;5038640;28;20037;-63
2022/08/09 04:51:44;;;;;;;9.68;6.55;;;14.80;99.90;;;;;;5033719;28;20353;-63
2022/08/09 04:54:10;;;;;;;7.75;5.68;;;14.80;99.90;;;;;;5032394;28;20032;-63
2022/08/09 04:56:36;;;;;;;9.98;5.90;;;14.80;99.90;;;;;;5034733;28;20041;-63
2022/08/09 04:59:01;;;;;;;7.88;5.85;;;14.90;99.90;;;;;;5039200;28;20175;-63
2022/08/09 05:01:27;;;;;;;9.30;6.03;;;14.90;99.90;;;;;;5036964;28;20051;-64
2022/08/09 05:03:52;;;;;;;9.20;6.50;;;14.90;99.90;;;;;;5038689;28;20056;-63
2022/08/09 05:06:18;;;;;;;11.80;7.40;;;14.90;99.90;;;;;;5036876;28;20053;-64
2022/08/09 05:08:44;;;;;;;9.13;6.82;;;14.90;99.90;;;;;;5043960;28;20045;-64
2022/08/09 05:11:10;;;;;;;9.40;7.35;;;14.90;99.90;;;;;;5048130;28;20079;-63
2022/08/09 05:13:35;;;;;;;10.27;7.07;;;14.90;99.90;;;;;;5040205;28;20171;-63
2022/08/09 05:16:01;;;;;;;9.98;7.07;;;15.00;99.90;;;;;;5049636;28;20384;-63
2022/08/09 05:18:32;;;;;;;12.10;8.93;;;15.10;99.90;;;;;;5041168;28;20456;-64
2022/08/09 05:20:58;;;;;;;11.30;8.88;;;15.20;99.90;;;;;;5035827;28;20391;-63
2022/08/09 05:23:24;;;;;;;11.18;8.30;;;15.20;99.90;;;;;;5036194;28;20499;-63
2022/08/09 05:25:50;;;;;;;9.65;7.57;;;15.30;99.90;;;;;;5043235;28;20053;-63
2022/08/09 05:28:16;;;;;;;9.30;6.57;;;15.40;99.90;;;;;;5045686;28;20041;-64
2022/08/09 05:30:43;;;;;;;9.30;6.53;;;15.60;99.90;;;;;;5040688;28;20087;-64
2022/08/09 05:33:09;;;;;;;9.13;6.30;;;15.70;99.90;;;;;;5047771;28;20148;-63
2022/08/09 05:35:34;;;;;;;8.80;6.35;;;15.80;99.90;;;;;;5043288;28;20569;-64
2022/08/09 05:38:00;;;;;;;8.57;6.15;;;15.80;99.90;;;;;;5036801;28;20037;-63
2022/08/09 05:40:27;;;;;;;8.07;5.32;;;15.90;99.90;;;;;;5045258;28;20037;-64
2022/08/09 05:42:53;;;;;;;9.05;5.80;;;16.00;99.90;;;;;;5043088;28;20046;-63
2022/08/09 05:45:19;;;;;;;7.78;5.68;;;16.00;99.90;;;;;;5038978;28;20045;-64
2022/08/09 05:47:45;;;;;;;7.32;5.45;;;16.20;99.90;;;;;;5037495;28;20091;-64
2022/08/09 05:50:11;;;;;;;8.50;5.85;;;16.20;99.90;;;;;;5040253;28;20101;-64
2022/08/09 05:52:36;;;;;;;8.43;5.45;;;16.30;99.90;;;;;;5039558;28;20157;-63
2022/08/09 05:55:02;;;;;;;8.70;6.28;;;16.30;99.90;;;;;;5040747;28;20048;-63
2022/08/09 05:57:28;;;;;;;7.70;5.63;;;16.40;99.90;;;;;;5046571;28;20033;-63
2022/08/09 05:59:53;;;;;;;10.10;5.75;;;16.50;99.90;;;;;;5048483;28;20041;-64
2022/08/09 06:02:19;;;;;;;9.80;6.40;;;16.70;99.90;;;;;;5038992;28;20118;-65
2022/08/09 06:04:45;;;;;;;8.00;5.60;;;16.80;99.90;;;;;;5033072;28;20052;-64
2022/08/09 06:07:10;;;;;;;8.38;5.80;;;16.90;99.90;;;;;;5040045;28;20048;-63
2022/08/09 06:09:36;;;;;;;9.70;5.45;;;16.90;99.90;;;;;;5052586;28;20053;-64
2022/08/09 06:12:02;;;;;;;8.23;5.80;;;17.00;99.90;;;;;;5041608;28;20044;-63
2022/08/09 06:14:27;;;;;;;9.45;6.53;;;17.00;99.90;;;;;;5043651;28;20037;-63
2022/08/09 06:16:54;;;;;;;8.50;5.68;;;17.10;99.90;;;;;;5041586;28;20444;-63
2022/08/09 06:19:20;;;;;;;9.43;5.85;;;17.20;99.90;;;;;;5044311;28;20080;-62
2022/08/09 06:21:45;;;;;;;7.85;5.60;;;17.30;99.90;;;;;;5046268;28;20078;-62
2022/08/09 06:24:11;;;;;;;7.95;5.68;;;17.40;99.90;;;;;;5047029;28;20077;-62
2022/08/09 06:26:40;;;;;;;7.10;5.30;;;17.50;99.90;;;;;;5034116;28;20040;-63
2022/08/09 06:29:08;;;;;;;8.57;5.95;;;17.50;99.90;;;;;;5042334;28;20064;-62
2022/08/09 06:31:35;;;;;;;9.02;5.63;;;17.60;99.90;;;;;;5044085;28;20073;-62
2022/08/09 06:34:04;;;;;;;8.63;5.45;;;17.70;99.90;;;;;;5046880;28;20053;-62
2022/08/09 06:36:30;;;;;;;8.50;5.28;;;17.80;99.90;;;;;;5047013;28;20076;-62
2022/08/09 06:38:56;;;;;;;7.60;5.50;;;17.90;99.90;;;;;;5045552;28;20045;-63
2022/08/09 06:41:22;;;;;;;8.63;5.13;;;17.90;99.90;;;;;;5046170;28;20067;-63
2022/08/09 06:43:47;;;;;;;8.93;5.75;;;18.00;99.90;;;;;;5044704;28;20338;-62
2022/08/09 06:46:14;;;;;;;7.78;5.53;;;18.10;99.90;;;;;;5046579;28;20140;-63
2022/08/09 06:48:41;;;;;;;9.50;5.72;;;18.20;99.90;;;;;;5046447;28;20044;-63
2022/08/09 06:51:07;;;;;;;8.68;5.57;;;18.40;99.90;;;;;;5046214;28;20040;-63
2022/08/09 06:53:34;;;;;;;8.32;5.70;;;18.50;99.90;;;;;;5043232;28;20046;-63
2022/08/09 06:56:01;;;;;;;9.57;4.50;;;18.50;99.90;;;;;;5041650;28;20106;-64
2022/08/09 06:58:28;;;;;;;9.07;5.15;;;18.60;99.90;;;;;;5039322;28;20042;-64
2022/08/09 07:00:54;;;;;;;8.35;4.75;;;18.70;99.90;;;;;;5039746;28;20799;-64
2022/08/09 07:03:21;;;;;;;7.05;4.70;;;18.80;99.90;;;;;;5028573;28;20055;-64
2022/08/09 07:05:46;;;;;;;6.45;4.00;;;18.90;99.90;;;;;;5030797;28;20088;-64
2022/08/09 07:08:12;;;;;;;7.70;4.07;;;18.90;99.90;;;;;;5035276;28;20073;-64
2022/08/09 07:10:38;;;;;;;6.97;4.20;;;19.10;99.90;;;;;;5041178;28;20049;-64
2022/08/09 07:13:03;;;;;;;6.03;3.72;;;19.10;99.90;;;;;;5038722;28;20476;-64
2022/08/09 07:15:30;;;;;;;7.55;3.95;;;19.20;99.90;;;;;;5037342;28;20041;-65
2022/08/09 07:17:56;;;;;;;7.57;3.35;;;19.30;99.90;;;;;;5039413;28;20132;-65
2022/08/09 07:20:22;;;;;;;7.05;2.88;;;19.30;99.90;;;;;;5038521;28;20045;-64
2022/08/09 07:22:48;;;;;;;5.95;2.78;;;19.30;99.90;;;;;;5038968;28;20037;-64
2022/08/09 07:25:13;;;;;;;6.10;2.88;;;19.40;99.90;;;;;;5036411;28;20106;-64
2022/08/09 07:27:40;;;;;;;5.43;3.00;;;19.50;99.90;;;;;;5041249;28;20146;-63
2022/08/09 07:30:06;;;;;;;5.90;2.72;;;19.60;99.90;;;;;;5046651;28;20059;-65
2022/08/09 07:32:32;;;;;;;6.38;1.98;;;19.60;99.90;;;;;;5043367;28;20132;-65
2022/08/09 07:34:58;;;;;;;8.05;2.60;;;19.70;99.90;;;;;;5036567;28;20117;-65
2022/08/09 07:37:23;;;;;;;4.97;1.70;;;19.70;99.90;;;;;;5038680;28;20060;-65
2022/08/09 07:39:49;;;;;;;4.82;2.08;;;19.90;99.90;;;;;;5046499;28;20107;-63
2022/08/09 07:42:14;;;;;;;3.58;1.88;;;19.90;99.90;;;;;;5044376;28;20075;-63
2022/08/09 07:44:40;;;;;;;5.68;2.30;;;20.00;99.90;;;;;;5042500;28;20524;-63
2022/08/09 07:47:06;;;;;;;4.70;2.53;;;20.10;99.90;;;;;;5041450;28;20056;-63
2022/08/09 07:49:31;;;;;;;4.88;2.20;;;20.20;99.90;;;;;;5035947;28;20111;-64
2022/08/09 07:51:57;;;;;;;6.47;2.10;;;20.30;99.90;;;;;;5035644;28;20045;-64
2022/08/09 07:54:24;;;;;;;4.93;2.22;;;20.40;99.90;;;;;;5035232;28;20441;-63
2022/08/09 07:56:50;;;;;;;5.43;2.10;;;20.50;99.90;;;;;;5030837;28;20041;-65
2022/08/09 07:59:19;;;;;;;3.20;1.55;;;20.50;99.90;;;;;;5026742;28;20128;-63
2022/08/09 08:01:45;;;;;;;4.60;1.80;;;20.50;99.90;;;;;;5039057;28;20041;-64
2022/08/09 08:04:10;;;;;;;5.82;1.98;;;20.60;99.90;;;;;;5029139;28;20038;-63
2022/08/09 08:06:36;;;;;;;4.15;1.88;;;20.80;99.90;;;;;;5036760;28;20053;-63
2022/08/09 08:09:02;;;;;;;6.00;2.00;;;20.80;99.90;;;;;;5029189;28;20530;-63
2022/08/09 08:11:27;;;;;;;4.05;1.77;;;20.90;99.90;;;;;;5041455;28;20476;-63
2022/08/09 08:13:53;;;;;;;5.38;1.80;;;20.90;99.90;;;;;;5047261;28;20083;-63
2022/08/09 08:16:18;;;;;;;4.28;1.90;;;21.00;99.90;;;;;;5048157;28;20061;-63
2022/08/09 08:18:44;;;;;;;5.80;1.95;;;21.10;99.90;;;;;;5044830;28;20051;-63
2022/08/09 08:21:09;;;;;;;4.45;1.80;;;21.20;99.90;;;;;;5040294;28;20048;-63
2022/08/09 08:23:35;;;;;;;4.45;1.70;;;21.30;99.90;;;;;;5037961;28;20052;-63
2022/08/09 08:26:00;;;;;;;3.42;1.50;;;21.40;99.90;;;;;;5044740;28;20059;-63
2022/08/09 08:28:26;;;;;;;2.47;1.30;;;21.50;99.90;;;;;;5046317;28;20037;-64
2022/08/09 08:30:52;;;;;;;2.88;1.20;;;21.60;99.90;;;;;;5040321;28;20044;-64
2022/08/09 08:33:18;;;;;;;2.38;1.20;;;21.60;99.90;;;;;;5038068;28;20046;-64
2022/08/09 08:35:44;;;;;;;3.83;1.30;;;21.70;99.90;;;;;;5040724;28;20052;-64
2022/08/09 08:38:09;;;;;;;3.28;1.13;;;21.70;99.90;;;;;;5041305;28;20061;-64
2022/08/09 08:40:36;;;;;;;3.72;1.45;;;21.80;99.90;;;;;;5041819;28;20063;-64
2022/08/09 08:43:03;;;;;;;3.15;1.30;;;21.80;99.90;;;;;;5035346;28;20041;-64
2022/08/09 08:45:32;;;;;;;2.55;1.10;;;21.80;99.90;;;;;;5046934;28;20041;-63
2022/08/09 08:47:59;;;;;;;2.97;1.10;;;21.80;99.90;;;;;;5035220;28;20109;-62
2022/08/09 08:50:24;;;;;;;2.88;1.23;;;21.90;99.90;;;;;;5035331;28;20683;-62
2022/08/09 08:52:51;;;;;;;4.47;1.20;;;22.00;99.90;;;;;;5038733;28;20044;-63
2022/08/09 08:55:17;;;;;;;4.07;1.30;;;21.90;99.90;;;;;;5035607;28;20056;-62
2022/08/09 08:57:43;;;;;;;3.28;1.05;;;22.00;99.90;;;;;;5040071;28;20110;-63
2022/08/09 09:00:09;;;;;;;1.50;0.95;;;22.10;99.90;;;;;;5046011;28;20044;-63
2022/08/09 09:02:37;;;;;;;2.75;1.30;;;22.20;99.90;;;;;;5040689;28;20345;-64
2022/08/09 09:05:03;;;;;;;1.98;1.10;;;22.40;99.90;;;;;;5040018;28;20041;-64
2022/08/09 09:07:31;;;;;;;2.58;1.27;;;22.50;99.90;;;;;;5037930;28;20068;-63
2022/08/09 09:09:58;;;;;;;2.95;1.20;;;22.50;99.90;;;;;;5045794;28;20041;-63
2022/08/09 09:12:28;;;;;;;2.38;1.23;;;22.70;99.90;;;;;;5046984;28;20651;-63
2022/08/09 09:14:57;;;;;;;4.25;1.10;;;22.70;99.80;;;;;;5045745;28;20399;-63
2022/08/09 09:17:23;;;;;;;1.48;0.98;;;22.60;99.30;;;;;;5046871;28;20049;-63
2022/08/09 09:19:49;;;;;;;2.53;1.15;;;22.60;99.30;;;;;;5044579;28;20049;-63
2022/08/09 09:22:20;;;;;;;2.25;1.00;;;22.40;99.20;;;;;;5039316;28;20098;-63
2022/08/09 09:24:48;;;;;;;2.70;0.95;;;22.30;99.30;;;;;;5046033;28;20123;-63
2022/08/09 09:27:21;;;;;;;2.95;1.38;;;22.30;99.60;;;;;;5046907;28;20373;-63
2022/08/09 09:29:47;;;;;;;3.70;1.27;;;22.30;99.50;;;;;;5043589;28;20116;-63
2022/08/09 09:32:26;;;;;;;3.22;1.00;;;22.40;99.20;;;;;;5039759;28;20441;-63
2022/08/09 09:35:23;;;;;;;2.33;1.10;;;22.40;99.00;;;;;;5037058;28;20349;-63
2022/08/09 09:37:52;;;;;;;3.03;1.10;;;22.30;99.40;;;;;;5030437;28;20061;-63
2022/08/09 09:40:18;;;;;;;2.80;1.10;;;22.30;99.50;;;;;;5040082;28;20449;-64
2022/08/09 09:42:54;;;;;;;1.88;0.95;;;22.30;99.20;;;;;;5051624;28;20124;-63
2022/08/09 09:45:20;;;;;;;1.80;0.98;;;22.20;99.00;;;;;;5045551;28;20049;-63
2022/08/09 09:47:45;;;;;;;2.17;0.93;;;22.30;99.20;;;;;;5036005;28;20052;-63
2022/08/09 09:50:11;;;;;;;2.88;1.13;;;22.40;99.30;;;;;;5044893;28;20037;-63
2022/08/09 09:52:51;;;;;;;3.03;1.10;;;22.50;99.10;;;;;;5050491;28;20041;-63
2022/08/09 09:55:16;;;;;;;3.42;1.10;;;22.90;98.20;;;;;;5050356;28;20476;-64
2022/08/09 09:58:03;;;;;;;3.08;1.27;;;23.10;98.80;;;;;;5048336;28;20052;-63
2022/08/09 10:00:29;;;;;;;2.90;1.20;;;23.40;98.40;;;;;;5037782;28;20047;-63
2022/08/09 10:02:54;;;;;;;4.70;1.02;;;23.50;98.00;;;;;;5049535;28;20041;-64
2022/08/09 10:05:20;;;;;;;2.28;1.02;;;23.60;97.60;;;;;;5047967;28;20041;-64
2022/08/09 10:07:45;;;;;;;1.90;0.90;;;23.60;97.40;;;;;;5044813;28;20072;-63
2022/08/09 10:10:11;;;;;;;2.00;1.10;;;23.60;97.60;;;;;;5035894;28;20129;-63
2022/08/09 10:12:38;;;;;;;2.38;1.10;;;23.60;97.10;;;;;;5045835;28;20037;-63
2022/08/09 10:15:14;;;;;;;1.98;0.90;;;23.70;96.60;;;;;;5048543;28;20040;-64
2022/08/09 10:17:41;;;;;;;2.90;0.93;;;23.80;96.20;;;;;;5049990;28;20353;-64
2022/08/09 10:20:16;;;;;;;2.35;0.90;;;23.90;96.00;;;;;;5047407;28;21061;-64
2022/08/09 10:22:42;;;;;;;2.40;0.75;;;24.00;95.80;;;;;;5041142;28;20067;-64
2022/08/09 10:25:08;;;;;;;2.15;1.00;;;24.00;95.60;;;;;;5048512;28;20448;-64
2022/08/09 10:27:35;;;;;;;2.28;0.80;;;24.00;95.50;;;;;;5049307;28;20106;-64
2022/08/09 10:30:04;;;;;;;4.03;0.82;;;24.00;95.10;;;;;;5050095;28;20123;-64
2022/08/09 10:32:29;;;;;;;1.75;0.68;;;23.90;95.00;;;;;;5043822;28;20037;-64
2022/08/09 10:34:55;;;;;;;2.45;0.88;;;23.90;95.20;;;;;;5048682;28;20040;-64
2022/08/09 10:37:22;;;;;;;2.35;0.73;;;23.90;94.90;;;;;;5049364;28;20037;-64
2022/08/09 10:39:48;;;;;;;2.00;0.75;;;23.80;94.70;;;;;;5047601;28;20059;-64
2022/08/09 10:42:14;;;;;;;0.85;0.80;;;23.90;94.80;;;;;;5050247;28;20129;-64
2022/08/09 10:44:43;;;;;;;2.67;0.82;;;23.90;94.50;;;;;;5035425;28;20472;-64
2022/08/09 10:47:35;;;;;;;2.88;0.75;;;24.00;94.00;;;;;;5038177;28;20040;-64
2022/08/09 10:50:13;;;;;;;2.40;0.90;;;24.10;94.00;;;;;;5031089;28;20129;-64
2022/08/09 10:53:01;;;;;;;2.72;0.80;;;24.20;94.10;;;;;;5048878;28;20132;-64
2022/08/09 10:55:28;;;;;;;1.08;0.63;;;24.20;93.70;;;;;;5036289;28;20044;-64
2022/08/09 10:57:55;;;;;;;1.73;0.75;;;24.20;93.70;;;;;;5046482;28;20289;-64
2022/08/09 11:00:36;;;;;;;2.47;0.88;;;24.20;93.50;;;;;;5048211;28;20032;-64
2022/08/09 11:03:17;;;;;;;0.82;0.63;;;24.30;93.40;;;;;;5046088;28;20122;-64
2022/08/09 11:06:15;;;;;;;1.23;0.70;;;24.40;93.60;;;;;;5035850;28;20054;-64
2022/08/09 11:08:42;;;;;;;2.20;0.88;;;24.50;93.70;;;;;;5046228;28;20128;-65
2022/08/09 11:11:08;;;;;;;1.88;0.93;;;24.50;93.50;;;;;;5036505;28;20045;-64
2022/08/09 11:13:34;;;;;;;0.98;0.60;;;24.50;93.10;;;;;;5049304;28;20039;-64
2022/08/09 11:16:29;;;;;;;1.45;0.70;;;24.60;92.90;;;;;;5047231;28;20049;-64
2022/08/09 11:18:55;;;;;;;0.98;0.77;;;24.50;93.10;;;;;;5046412;28;20484;-65
2022/08/09 11:21:56;;;;;;;1.17;0.70;;;24.70;93.20;;;;;;5036274;28;20558;-65
2022/08/09 11:24:22;;;;;;;2.80;0.70;;;24.80;92.60;;;;;;5045691;28;20048;-64
2022/08/09 11:26:49;;;;;;;0.93;0.63;;;24.80;92.70;;;;;;5049561;28;20045;-64
2022/08/09 11:29:56;;;;;;;1.48;0.80;;;24.80;92.20;;;;;;5035391;28;20057;-64
2022/08/09 11:32:44;;;;;;;0.90;0.57;;;24.90;92.30;;;;;;5040223;28;20037;-64
2022/08/09 11:35:38;;;;;;;1.17;0.60;;;25.00;91.90;;;;;;5036707;28;20076;-65
2022/08/09 11:38:21;;;;;;;1.08;0.80;;;25.10;91.90;;;;;;5045654;28;20190;-65
2022/08/09 11:40:47;;;;;;;1.65;0.50;;;25.10;91.60;;;;;;5041881;28;20091;-64
2022/08/09 11:43:36;;;;;;;2.53;0.60;;;25.10;91.10;;;;;;5046905;28;20041;-64
2022/08/09 11:46:04;;;;;;;0.98;0.60;;;25.10;91.00;;;;;;5047473;28;20140;-64
2022/08/09 11:48:32;;;;;;;1.85;0.70;;;25.20;90.90;;;;;;5038531;28;20069;-64
2022/08/09 11:51:02;;;;;;;1.20;0.80;;;25.30;90.60;;;;;;5046207;28;20041;-64
2022/08/09 11:53:36;;;;;;;2.08;0.70;;;25.30;90.50;;;;;;5046186;28;20121;-64
2022/08/09 11:56:14;;;;;;;3.03;0.80;;;25.40;90.50;;;;;;5046110;28;20119;-64
2022/08/09 11:58:59;;;;;;;2.22;0.80;;;25.40;90.00;;;;;;5044642;28;20111;-64
2022/08/09 12:01:39;;;;;;;1.48;0.80;;;25.60;90.30;;;;;;5048946;28;20057;-64
2022/08/09 12:04:13;;;;;;;0.70;0.55;;;25.70;90.30;;;;;;5045859;28;20081;-64
2022/08/09 12:06:48;;;;;;;1.80;0.80;;;25.70;89.00;;;;;;5046898;28;20128;-65
2022/08/09 12:09:14;;;;;;;1.80;0.70;;;25.70;89.30;;;;;;5037297;28;20041;-64
2022/08/09 12:11:40;;;;;;;0.73;0.65;;;25.70;89.70;;;;;;5039346;28;20064;-64
2022/08/09 12:14:09;;;;;;;3.58;0.60;;;25.70;90.20;;;;;;5034772;28;20041;-65
2022/08/09 12:16:42;;;;;;;1.10;0.70;;;25.60;90.20;;;;;;5047204;28;20043;-64
2022/08/09 12:19:10;;;;;;;5.05;0.77;;;25.40;90.10;;;;;;5045422;28;20047;-65
2022/08/09 12:21:41;;;;;;;0.82;0.68;;;25.50;90.00;;;;;;5046461;28;20067;-65
2022/08/09 12:24:09;;;;;;;1.67;0.70;;;25.60;90.10;;;;;;5046658;28;20138;-64
2022/08/09 12:26:40;;;;;;;1.42;0.63;;;25.70;89.70;;;;;;5035966;28;20033;-65
2022/08/09 12:29:06;;;;;;;0.90;0.63;;;25.70;89.40;;;;;;5037443;28;20042;-64
2022/08/09 12:31:32;;;;;;;1.95;0.70;;;25.70;90.10;;;;;;5048165;28;20073;-65
2022/08/09 12:33:58;;;;;;;0.60;0.60;;;25.70;89.50;;;;;;5046396;28;20064;-64
2022/08/09 12:36:23;;;;;;;1.17;0.73;;;25.60;88.70;;;;;;5047469;28;20029;-64
2022/08/09 12:38:50;;;;;;;1.52;0.80;;;25.60;88.50;;;;;;5046950;28;20134;-65
2022/08/09 12:41:27;;;;;;;1.15;0.75;;;25.80;88.60;;;;;;5047998;28;20060;-64
2022/08/09 12:43:54;;;;;;;0.93;0.70;;;25.90;88.20;;;;;;5044286;28;20049;-65
2022/08/09 12:46:20;;;;;;;1.02;0.68;;;25.90;87.40;;;;;;5046560;28;20048;-65
2022/08/09 12:48:47;;;;;;;1.17;0.70;;;26.00;86.20;;;;;;5044622;28;20076;-65
2022/08/09 12:51:13;;;;;;;2.65;0.80;;;26.10;85.50;;;;;;5046850;28;20059;-64
2022/08/09 12:53:40;;;;;;;3.05;0.63;;;26.30;85.90;;;;;;5040813;28;20524;-65
2022/08/09 12:56:09;;;;;;;2.92;0.90;;;26.40;85.80;;;;;;5048575;28;20122;-64